Time;durP1;ratioP1;P1;durP2;ratioP2;P2;SDS_P1;SDS_P2;PMS_P1;PMS_P2;Temp;Humidity;BMP_temperature;BMP_pressure;BME280_temperature;BME280_humidity;BME280_pressure;Samples;Min_cycle;Max_cycle;Signal;HPM_P1;HPM_P2
2021/09/20 00:01:43;;;;;;;13.20;5.53;;;14.60;90.80;;;;;;5033242;28;20212;-75
2021/09/20 00:04:09;;;;;;;12.10;6.67;;;14.60;91.00;;;;;;5033414;28;20476;-76
2021/09/20 00:06:34;;;;;;;8.87;5.93;;;14.60;90.90;;;;;;5032168;28;20208;-74
2021/09/20 00:09:00;;;;;;;9.80;5.40;;;14.70;90.40;;;;;;5033758;28;20192;-74
2021/09/20 00:11:26;;;;;;;9.37;5.37;;;14.60;90.50;;;;;;5036080;28;20652;-75
2021/09/20 00:13:52;;;;;;;9.30;6.13;;;14.60;90.60;;;;;;5039974;28;20452;-74
2021/09/20 00:16:18;;;;;;;10.30;6.47;;;14.60;90.70;;;;;;5035552;28;20576;-73
2021/09/20 00:18:43;;;;;;;10.50;6.17;;;14.60;90.80;;;;;;5032844;28;20593;-74
2021/09/20 00:21:09;;;;;;;8.83;5.67;;;14.60;90.70;;;;;;5032925;28;20205;-75
2021/09/20 00:23:35;;;;;;;10.50;5.60;;;14.60;90.80;;;;;;5032851;28;20718;-78
2021/09/20 00:26:00;;;;;;;12.30;6.17;;;14.60;90.90;;;;;;5032617;28;20205;-75
2021/09/20 00:28:26;;;;;;;9.53;6.10;;;14.60;90.90;;;;;;5032622;28;20173;-78
2021/09/20 00:30:52;;;;;;;11.80;6.60;;;14.50;90.90;;;;;;5031880;28;20188;-79
2021/09/20 00:33:18;;;;;;;9.80;5.80;;;14.50;90.90;;;;;;5031148;28;20435;-79
2021/09/20 00:35:44;;;;;;;12.27;6.87;;;14.40;91.10;;;;;;5032874;28;20197;-77
2021/09/20 00:38:10;;;;;;;11.07;5.70;;;14.50;91.10;;;;;;5032480;28;20421;-78
2021/09/20 00:40:35;;;;;;;10.57;5.53;;;14.60;90.90;;;;;;5031103;28;20679;-80
2021/09/20 00:43:02;;;;;;;9.23;5.60;;;14.70;90.70;;;;;;5032086;28;20585;-78
2021/09/20 00:45:28;;;;;;;9.37;6.17;;;14.80;90.60;;;;;;5032131;28;20622;-79
2021/09/20 00:47:53;;;;;;;9.03;5.57;;;14.80;90.40;;;;;;5032163;28;20452;-78
2021/09/20 00:50:19;;;;;;;9.10;5.53;;;14.90;90.30;;;;;;5033220;28;20982;-77
2021/09/20 00:52:45;;;;;;;9.70;6.57;;;14.90;90.10;;;;;;5032584;28;20192;-79
2021/09/20 00:55:12;;;;;;;8.90;5.80;;;14.80;90.10;;;;;;5033168;28;20497;-75
2021/09/20 00:57:39;;;;;;;9.70;5.93;;;14.70;90.40;;;;;;5032158;28;20780;-77
2021/09/20 01:00:07;;;;;;;10.80;6.67;;;14.70;90.30;;;;;;5030431;28;20441;-76
2021/09/20 01:02:33;;;;;;;10.90;5.90;;;14.60;90.50;;;;;;5028427;28;20921;-76
2021/09/20 01:04:59;;;;;;;11.23;6.70;;;14.60;90.80;;;;;;5029778;28;20504;-76
2021/09/20 01:07:24;;;;;;;9.40;6.00;;;14.70;90.60;;;;;;5028179;28;20203;-75
2021/09/20 01:09:51;;;;;;;9.40;6.00;;;14.80;90.60;;;;;;5030345;28;20737;-76
2021/09/20 01:12:17;;;;;;;9.27;5.87;;;14.80;90.30;;;;;;5030011;28;20191;-77
2021/09/20 01:14:42;;;;;;;10.40;5.80;;;14.90;90.20;;;;;;5028797;28;20470;-76
2021/09/20 01:17:08;;;;;;;10.70;5.73;;;14.80;90.00;;;;;;5030703;28;20477;-76
2021/09/20 01:19:34;;;;;;;16.03;6.87;;;14.70;90.10;;;;;;5029165;28;20189;-76
2021/09/20 01:22:04;;;;;;;10.70;6.37;;;14.60;90.40;;;;;;5030174;28;20927;-76
2021/09/20 01:24:30;;;;;;;11.47;6.70;;;14.60;90.70;;;;;;5017584;28;20472;-77
2021/09/20 01:27:00;;;;;;;11.60;6.80;;;14.60;90.80;;;;;;5029948;28;20451;-76
2021/09/20 01:29:26;;;;;;;7.30;5.10;;;14.60;90.60;;;;;;5029882;28;20420;-77
2021/09/20 01:31:52;;;;;;;10.77;5.67;;;14.60;90.70;;;;;;5030737;28;20440;-77
2021/09/20 01:34:18;;;;;;;10.43;6.30;;;14.60;90.70;;;;;;5030078;28;20447;-76
2021/09/20 01:36:43;;;;;;;10.57;6.00;;;14.60;90.70;;;;;;5030831;28;20935;-76
2021/09/20 01:39:36;;;;;;;7.87;5.63;;;14.60;90.70;;;;;;5032213;28;20193;-77
2021/09/20 01:42:03;;;;;;;11.90;6.60;;;14.70;90.60;;;;;;5030467;28;20739;-78
2021/09/20 01:44:28;;;;;;;10.27;5.63;;;14.80;90.30;;;;;;5028718;28;20507;-75
2021/09/20 01:46:56;;;;;;;8.23;5.63;;;14.80;90.10;;;;;;5029242;28;20536;-76
2021/09/20 01:49:23;;;;;;;8.83;5.20;;;14.80;90.20;;;;;;5026999;28;20692;-76
2021/09/20 01:51:49;;;;;;;12.57;6.30;;;14.80;90.20;;;;;;5029486;28;20480;-76
2021/09/20 01:54:15;;;;;;;9.10;5.80;;;14.70;90.20;;;;;;5025882;28;20840;-76
2021/09/20 01:56:42;;;;;;;11.37;6.77;;;14.60;90.50;;;;;;5022300;28;20467;-76
2021/09/20 01:59:09;;;;;;;12.13;7.37;;;14.60;90.60;;;;;;5030136;28;20425;-75
2021/09/20 02:01:35;;;;;;;11.80;6.87;;;14.50;90.80;;;;;;5020227;28;20461;-77
2021/09/20 02:04:01;;;;;;;12.73;6.47;;;14.50;91.00;;;;;;5034720;28;20420;-77
2021/09/20 02:06:27;;;;;;;10.97;6.90;;;14.40;91.20;;;;;;5029361;28;20901;-77
2021/09/20 02:08:54;;;;;;;14.20;7.53;;;14.40;91.40;;;;;;5039013;28;20434;-76
2021/09/20 02:11:22;;;;;;;12.37;7.20;;;14.30;91.40;;;;;;5051215;28;20190;-76
2021/09/20 02:13:49;;;;;;;10.40;6.40;;;14.30;91.80;;;;;;5034171;28;20430;-76
2021/09/20 02:16:15;;;;;;;11.13;6.60;;;14.30;91.80;;;;;;5031548;28;20490;-76
2021/09/20 02:18:41;;;;;;;11.47;6.50;;;14.30;91.80;;;;;;5022608;28;20432;-77
2021/09/20 02:21:08;;;;;;;11.80;6.10;;;14.40;91.70;;;;;;5030120;28;20568;-77
2021/09/20 02:23:35;;;;;;;12.00;7.10;;;14.40;91.70;;;;;;5028529;28;20207;-76
2021/09/20 02:26:01;;;;;;;14.07;6.83;;;14.40;91.60;;;;;;5028489;28;21212;-76
2021/09/20 02:28:27;;;;;;;9.20;6.27;;;14.30;91.70;;;;;;5027715;28;20519;-76
2021/09/20 02:30:53;;;;;;;13.73;7.67;;;14.30;91.90;;;;;;5029629;28;20974;-76
2021/09/20 02:33:19;;;;;;;13.80;7.20;;;14.30;91.70;;;;;;5026517;28;20500;-76
2021/09/20 02:35:45;;;;;;;10.13;6.90;;;14.20;91.70;;;;;;5022851;28;20194;-76
2021/09/20 02:38:10;;;;;;;11.70;6.70;;;14.30;91.80;;;;;;5026051;28;20244;-77
2021/09/20 02:40:36;;;;;;;10.70;6.10;;;14.30;91.80;;;;;;5023259;28;20187;-77
2021/09/20 02:43:03;;;;;;;11.27;6.40;;;14.30;91.80;;;;;;5033491;28;20950;-76
2021/09/20 02:45:29;;;;;;;10.63;6.67;;;14.40;91.70;;;;;;5031357;28;20439;-76
2021/09/20 02:47:55;;;;;;;9.70;6.30;;;14.30;91.80;;;;;;5040313;28;20963;-76
2021/09/20 02:50:20;;;;;;;9.67;6.20;;;14.30;91.90;;;;;;5038678;28;20259;-75
2021/09/20 02:52:46;;;;;;;12.10;6.70;;;14.30;91.90;;;;;;5038947;28;20837;-77
2021/09/20 02:55:13;;;;;;;12.63;6.43;;;14.30;91.80;;;;;;5040891;28;20725;-76
2021/09/20 02:57:39;;;;;;;15.43;7.27;;;14.40;91.80;;;;;;5043923;28;20706;-75
2021/09/20 03:00:07;;;;;;;14.07;6.60;;;14.40;91.50;;;;;;5042142;28;20432;-75
2021/09/20 03:02:33;;;;;;;8.03;5.20;;;14.50;91.20;;;;;;5038789;28;20518;-75
2021/09/20 03:04:59;;;;;;;15.20;7.07;;;14.50;91.20;;;;;;5042886;28;20428;-76
2021/09/20 03:07:24;;;;;;;12.33;6.00;;;14.40;91.40;;;;;;5042218;28;20281;-76
2021/09/20 03:09:50;;;;;;;11.73;6.50;;;14.40;91.50;;;;;;5042770;28;20255;-76
2021/09/20 03:12:16;;;;;;;11.63;6.33;;;14.40;91.40;;;;;;5041968;28;20277;-76
2021/09/20 03:14:41;;;;;;;12.90;6.73;;;14.40;91.50;;;;;;5044695;28;20192;-77
2021/09/20 03:17:07;;;;;;;10.57;6.10;;;14.40;91.60;;;;;;5043170;28;20225;-76
2021/09/20 03:19:33;;;;;;;8.10;5.70;;;14.50;91.60;;;;;;5042061;28;20186;-77
2021/09/20 03:21:59;;;;;;;10.97;7.00;;;14.50;91.50;;;;;;5041550;28;20263;-76
2021/09/20 03:24:24;;;;;;;12.77;7.10;;;14.40;91.50;;;;;;5040952;28;20281;-75
2021/09/20 03:26:50;;;;;;;10.97;7.30;;;14.50;91.40;;;;;;5041772;28;20205;-76
2021/09/20 03:29:16;;;;;;;14.17;6.97;;;14.50;91.00;;;;;;5042435;28;20177;-77
2021/09/20 03:31:42;;;;;;;9.87;5.80;;;14.50;91.20;;;;;;5040374;28;20428;-77
2021/09/20 03:34:08;;;;;;;11.23;6.80;;;14.60;91.30;;;;;;5041773;28;20428;-74
2021/09/20 03:36:33;;;;;;;10.70;6.00;;;14.60;91.30;;;;;;5038887;28;20228;-75
2021/09/20 03:38:59;;;;;;;12.70;6.10;;;14.60;91.30;;;;;;5038018;28;20194;-76
2021/09/20 03:41:25;;;;;;;10.67;6.27;;;14.60;91.30;;;;;;5037919;28;20576;-75
2021/09/20 03:43:51;;;;;;;13.50;6.43;;;14.60;91.30;;;;;;5032216;28;20261;-76
2021/09/20 03:46:17;;;;;;;11.93;6.50;;;14.50;91.30;;;;;;5034837;28;20448;-75
2021/09/20 03:48:42;;;;;;;12.70;6.50;;;14.50;91.60;;;;;;5032293;28;20613;-76
2021/09/20 03:51:08;;;;;;;11.20;6.50;;;14.50;91.60;;;;;;5032488;28;20276;-76
2021/09/20 03:53:35;;;;;;;12.00;6.70;;;14.50;91.60;;;;;;5027749;28;20246;-76
2021/09/20 03:56:02;;;;;;;10.20;6.20;;;14.50;91.60;;;;;;5037256;28;20263;-76
2021/09/20 03:58:28;;;;;;;10.80;6.23;;;14.40;91.80;;;;;;5036636;28;20512;-77
2021/09/20 04:00:53;;;;;;;9.77;6.03;;;14.40;91.90;;;;;;5032683;28;20562;-77
2021/09/20 04:03:19;;;;;;;11.20;6.60;;;14.40;91.70;;;;;;5027065;28;20723;-76
2021/09/20 04:05:45;;;;;;;10.80;6.40;;;14.50;91.50;;;;;;5030188;28;20198;-76
2021/09/20 04:08:14;;;;;;;14.33;5.77;;;14.50;91.30;;;;;;5029439;28;20189;-77
2021/09/20 04:10:40;;;;;;;8.90;5.73;;;14.50;91.50;;;;;;5032183;28;20193;-76
2021/09/20 04:13:06;;;;;;;11.17;6.53;;;14.50;91.60;;;;;;5033118;28;20425;-77
2021/09/20 04:15:31;;;;;;;11.73;6.23;;;14.50;91.50;;;;;;5030731;28;20194;-76
2021/09/20 04:17:57;;;;;;;11.60;6.83;;;14.50;91.50;;;;;;5031248;28;20213;-75
2021/09/20 04:20:23;;;;;;;10.83;6.07;;;14.40;91.60;;;;;;5032537;28;20189;-77
2021/09/20 04:22:49;;;;;;;11.40;6.20;;;14.40;91.70;;;;;;5032106;28;20219;-76
2021/09/20 04:25:15;;;;;;;10.20;6.53;;;14.40;91.80;;;;;;5032444;28;20791;-76
2021/09/20 04:27:41;;;;;;;12.43;7.33;;;14.30;91.90;;;;;;5030619;28;20205;-76
2021/09/20 04:30:08;;;;;;;13.33;7.33;;;14.20;92.20;;;;;;5031089;28;20416;-75
2021/09/20 04:32:34;;;;;;;11.63;6.63;;;14.20;92.20;;;;;;5032462;28;20203;-75
2021/09/20 04:35:00;;;;;;;10.60;6.33;;;14.20;92.30;;;;;;5030831;28;20421;-75
2021/09/20 04:37:25;;;;;;;12.43;6.07;;;14.20;92.40;;;;;;5047899;28;20284;-75
2021/09/20 04:39:51;;;;;;;12.17;7.10;;;14.20;92.40;;;;;;5046527;28;20182;-76
2021/09/20 04:42:17;;;;;;;10.87;7.03;;;14.30;92.40;;;;;;5042584;28;20200;-75
2021/09/20 04:44:42;;;;;;;10.80;6.97;;;14.30;92.40;;;;;;5046678;28;20186;-76
2021/09/20 04:47:08;;;;;;;12.60;6.83;;;14.30;92.30;;;;;;5047520;28;20724;-76
2021/09/20 04:49:34;;;;;;;10.83;6.47;;;14.20;92.20;;;;;;5045542;28;20204;-75
2021/09/20 04:52:00;;;;;;;12.67;7.10;;;14.30;92.30;;;;;;5044096;28;20790;-75
2021/09/20 04:54:26;;;;;;;16.10;7.27;;;14.30;92.30;;;;;;5035892;28;20188;-76
2021/09/20 04:56:52;;;;;;;10.63;6.80;;;14.30;92.30;;;;;;5032432;28;20436;-75
2021/09/20 04:59:18;;;;;;;10.90;5.93;;;14.20;92.50;;;;;;5032310;28;20215;-76
2021/09/20 05:01:43;;;;;;;14.17;7.50;;;14.30;92.40;;;;;;5032330;28;20592;-75
2021/09/20 05:04:09;;;;;;;9.30;5.87;;;14.30;92.30;;;;;;5031483;28;20185;-76
2021/09/20 05:06:36;;;;;;;14.37;8.27;;;14.30;91.90;;;;;;5034222;28;20593;-77
2021/09/20 05:09:03;;;;;;;12.80;7.80;;;14.30;91.80;;;;;;5032634;28;20427;-75
2021/09/20 05:11:29;;;;;;;15.10;8.43;;;14.20;92.10;;;;;;5034379;28;20447;-75
2021/09/20 05:13:55;;;;;;;15.10;7.50;;;14.20;92.10;;;;;;5044660;28;20458;-76
2021/09/20 05:16:21;;;;;;;11.40;7.20;;;14.20;91.90;;;;;;5041390;28;20488;-77
2021/09/20 05:18:46;;;;;;;13.63;7.80;;;14.30;92.00;;;;;;5034635;28;20983;-74
2021/09/20 05:21:12;;;;;;;12.43;7.23;;;14.20;92.10;;;;;;5033054;28;20549;-76
2021/09/20 05:23:38;;;;;;;13.50;7.43;;;14.20;92.30;;;;;;5031986;28;20260;-75
2021/09/20 05:26:04;;;;;;;12.63;6.83;;;14.30;92.30;;;;;;5035881;28;20225;-75
2021/09/20 05:28:30;;;;;;;12.93;7.00;;;14.30;92.00;;;;;;5042025;28;20490;-75
2021/09/20 05:30:56;;;;;;;12.83;6.90;;;14.30;92.00;;;;;;5036708;28;20460;-75
2021/09/20 05:33:22;;;;;;;13.27;7.47;;;14.40;91.90;;;;;;5035267;28;20483;-76
2021/09/20 05:35:48;;;;;;;13.30;7.10;;;14.40;91.80;;;;;;5038019;28;20189;-76
2021/09/20 05:38:14;;;;;;;12.23;7.17;;;14.50;91.90;;;;;;5038407;28;20651;-74
2021/09/20 05:40:43;;;;;;;11.50;7.20;;;14.50;91.60;;;;;;5039786;28;20451;-76
2021/09/20 05:43:10;;;;;;;13.30;7.17;;;14.50;91.60;;;;;;5037961;28;20467;-75
2021/09/20 05:45:36;;;;;;;12.97;7.27;;;14.50;91.70;;;;;;5035175;28;20519;-75
2021/09/20 05:48:02;;;;;;;14.47;6.87;;;14.60;91.50;;;;;;5037506;28;20428;-75
2021/09/20 05:50:28;;;;;;;12.80;7.60;;;14.70;91.30;;;;;;5033636;28;20426;-76
2021/09/20 05:52:54;;;;;;;10.20;6.33;;;14.70;91.20;;;;;;5031410;28;20422;-76
2021/09/20 05:55:20;;;;;;;11.17;7.03;;;14.70;91.10;;;;;;5032074;28;20181;-76
2021/09/20 05:57:46;;;;;;;15.33;7.87;;;14.80;91.00;;;;;;5031482;28;20494;-77
2021/09/20 06:00:12;;;;;;;15.23;7.50;;;14.80;90.90;;;;;;5030961;28;20435;-76
2021/09/20 06:02:39;;;;;;;14.50;7.17;;;14.80;91.00;;;;;;5030097;28;20566;-77
2021/09/20 06:05:05;;;;;;;11.90;6.70;;;14.80;90.90;;;;;;5012460;28;20425;-75
2021/09/20 06:07:31;;;;;;;12.10;6.90;;;14.80;90.90;;;;;;5031968;28;20432;-77
2021/09/20 06:09:57;;;;;;;14.90;7.63;;;14.90;91.20;;;;;;5031626;28;20424;-76
2021/09/20 06:12:23;;;;;;;13.57;7.27;;;14.80;91.00;;;;;;5031439;28;20200;-76
2021/09/20 06:14:48;;;;;;;13.43;7.30;;;14.90;91.20;;;;;;5029543;28;20182;-76
2021/09/20 06:17:14;;;;;;;14.83;7.50;;;14.90;91.20;;;;;;5031482;28;20259;-76
2021/09/20 06:19:40;;;;;;;14.00;7.47;;;15.00;91.10;;;;;;5036174;28;20335;-77
2021/09/20 06:22:05;;;;;;;11.53;6.90;;;15.10;90.70;;;;;;5034801;28;20216;-77
2021/09/20 06:24:31;;;;;;;14.00;7.57;;;15.00;90.90;;;;;;5034425;28;20198;-77
2021/09/20 06:26:57;;;;;;;12.97;7.30;;;15.00;90.90;;;;;;5041404;28;20205;-76
2021/09/20 06:29:23;;;;;;;12.20;7.20;;;15.10;90.90;;;;;;5030536;28;20676;-76
2021/09/20 06:31:48;;;;;;;15.50;8.30;;;15.10;91.00;;;;;;5035117;28;20185;-75
2021/09/20 06:34:14;;;;;;;15.07;8.00;;;15.20;90.70;;;;;;5033157;28;20194;-75
2021/09/20 06:36:40;;;;;;;12.60;7.73;;;15.30;90.30;;;;;;5034105;28;20222;-76
2021/09/20 06:39:10;;;;;;;11.37;6.77;;;15.30;90.00;;;;;;5034152;28;20431;-76
2021/09/20 06:41:37;;;;;;;14.97;7.80;;;15.40;89.70;;;;;;5034553;28;20536;-76
2021/09/20 06:44:03;;;;;;;14.40;7.43;;;15.40;89.60;;;;;;5033115;28;20454;-76
2021/09/20 06:46:31;;;;;;;14.33;7.77;;;15.50;89.60;;;;;;5034708;28;20463;-75
2021/09/20 06:48:58;;;;;;;14.33;7.23;;;15.50;89.20;;;;;;5034632;28;20481;-77
2021/09/20 06:51:24;;;;;;;14.60;8.10;;;15.50;89.00;;;;;;5032015;28;20835;-76
2021/09/20 06:53:50;;;;;;;17.33;7.70;;;15.50;89.20;;;;;;5028837;28;20507;-75
2021/09/20 06:56:17;;;;;;;16.00;9.27;;;15.50;89.20;;;;;;5034022;28;20260;-77
2021/09/20 06:58:43;;;;;;;16.17;8.20;;;15.50;88.90;;;;;;5033616;28;20449;-76
2021/09/20 07:01:09;;;;;;;21.93;8.93;;;15.50;88.90;;;;;;5035231;28;20453;-76
2021/09/20 07:03:35;;;;;;;13.93;8.10;;;15.60;88.90;;;;;;5035464;28;20641;-76
2021/09/20 07:06:01;;;;;;;13.47;7.90;;;15.50;88.70;;;;;;5034407;28;20592;-76
2021/09/20 07:08:26;;;;;;;12.77;8.13;;;15.50;89.20;;;;;;5034077;28;20426;-75
2021/09/20 07:10:53;;;;;;;16.83;8.97;;;15.50;89.20;;;;;;5035304;28;20444;-76
2021/09/20 07:13:18;;;;;;;17.83;9.20;;;15.60;89.20;;;;;;5034993;28;20227;-78
2021/09/20 07:15:44;;;;;;;16.47;8.10;;;15.60;89.20;;;;;;5034905;28;20426;-76
2021/09/20 07:18:10;;;;;;;16.50;8.53;;;15.60;89.20;;;;;;5033278;28;20576;-76
2021/09/20 07:20:36;;;;;;;15.83;8.93;;;15.70;88.90;;;;;;5034242;28;20191;-76
2021/09/20 07:23:02;;;;;;;16.93;8.63;;;15.70;88.70;;;;;;5034665;28;20212;-77
2021/09/20 07:25:28;;;;;;;18.53;9.37;;;15.70;88.60;;;;;;5032815;28;20607;-78
2021/09/20 07:27:54;;;;;;;22.67;8.20;;;15.80;88.60;;;;;;5028476;28;20470;-75
2021/09/20 07:30:20;;;;;;;15.13;8.60;;;15.90;88.30;;;;;;5029495;28;20825;-77
2021/09/20 07:32:47;;;;;;;20.37;8.97;;;15.90;88.00;;;;;;5034298;28;20510;-76
2021/09/20 07:35:16;;;;;;;19.27;9.27;;;15.90;87.80;;;;;;5034048;28;20177;-77
2021/09/20 07:37:46;;;;;;;16.77;9.13;;;15.80;87.80;;;;;;5032403;28;20472;-75
2021/09/20 07:40:13;;;;;;;13.77;8.10;;;15.80;88.10;;;;;;5032477;28;20940;-76
2021/09/20 07:42:40;;;;;;;17.63;9.10;;;15.90;88.10;;;;;;5032368;28;20469;-76
2021/09/20 07:45:08;;;;;;;19.47;7.93;;;15.90;88.00;;;;;;5032067;28;20883;-77
2021/09/20 07:47:34;;;;;;;18.97;10.07;;;15.90;87.80;;;;;;5032372;28;20448;-77
2021/09/20 07:49:59;;;;;;;16.63;9.33;;;16.00;87.70;;;;;;5034180;28;20428;-77
2021/09/20 07:52:25;;;;;;;18.37;9.30;;;16.00;87.80;;;;;;5025940;28;20458;-76
2021/09/20 07:54:52;;;;;;;19.87;9.30;;;16.00;87.80;;;;;;5035989;28;20190;-76
2021/09/20 07:57:17;;;;;;;16.73;9.20;;;15.90;88.00;;;;;;5038684;28;20216;-76
2021/09/20 07:59:45;;;;;;;17.80;9.30;;;16.00;88.10;;;;;;5038740;28;20434;-76
2021/09/20 08:02:10;;;;;;;18.67;9.77;;;16.10;87.70;;;;;;5034603;28;20213;-76
2021/09/20 08:04:36;;;;;;;24.77;11.47;;;16.10;87.30;;;;;;5024053;28;20478;-76
2021/09/20 08:07:02;;;;;;;22.83;10.20;;;16.10;87.40;;;;;;5034747;28;20212;-75
2021/09/20 08:09:28;;;;;;;19.40;11.20;;;16.00;87.80;;;;;;5047242;28;20204;-76
2021/09/20 08:11:54;;;;;;;24.23;10.37;;;16.10;87.70;;;;;;5042993;28;20427;-76
2021/09/20 08:14:20;;;;;;;22.03;10.77;;;16.10;87.70;;;;;;5032473;28;20776;-75
2021/09/20 08:16:46;;;;;;;21.93;11.13;;;16.10;87.40;;;;;;5029552;28;20255;-76
2021/09/20 08:19:12;;;;;;;20.67;10.30;;;16.10;87.10;;;;;;5033076;28;20292;-76
2021/09/20 08:21:37;;;;;;;23.20;9.83;;;16.20;87.40;;;;;;5033182;28;20475;-77
2021/09/20 08:24:03;;;;;;;19.33;9.50;;;16.30;87.10;;;;;;5025856;28;20216;-76
2021/09/20 08:26:29;;;;;;;19.17;10.50;;;16.40;86.80;;;;;;5032523;28;20652;-76
2021/09/20 08:28:56;;;;;;;24.63;10.60;;;16.50;86.80;;;;;;5032800;28;20428;-77
2021/09/20 08:31:21;;;;;;;22.47;10.90;;;16.50;86.00;;;;;;5033759;28;20264;-76
2021/09/20 08:33:47;;;;;;;20.60;10.53;;;16.50;86.30;;;;;;5033309;28;20901;-77
2021/09/20 08:36:13;;;;;;;26.03;11.90;;;16.60;86.30;;;;;;5034653;28;20304;-76
2021/09/20 08:38:39;;;;;;;23.60;11.00;;;16.60;86.20;;;;;;5035826;28;20233;-76
2021/09/20 08:41:06;;;;;;;20.60;11.03;;;16.70;86.30;;;;;;5032087;28;20423;-78
2021/09/20 08:43:32;;;;;;;25.00;11.20;;;16.70;85.90;;;;;;5033318;28;20433;-77
2021/09/20 08:46:03;;;;;;;22.63;11.10;;;16.50;86.00;;;;;;5037666;28;20534;-75
2021/09/20 08:48:39;;;;;;;20.50;10.47;;;16.60;86.50;;;;;;5040051;28;20438;-76
2021/09/20 08:51:05;;;;;;;19.77;10.33;;;16.70;85.90;;;;;;5033461;28;20434;-76
2021/09/20 08:53:31;;;;;;;19.77;10.17;;;16.80;85.50;;;;;;5023314;28;20428;-77
2021/09/20 08:55:58;;;;;;;25.80;11.67;;;16.90;85.20;;;;;;5038010;28;20446;-77
2021/09/20 08:58:25;;;;;;;21.60;11.33;;;17.00;84.70;;;;;;5032497;28;20513;-76
2021/09/20 09:00:51;;;;;;;25.17;13.20;;;17.20;84.30;;;;;;5024291;28;20517;-77
2021/09/20 09:03:21;;;;;;;27.77;12.90;;;17.20;84.10;;;;;;5032780;28;20903;-77
2021/09/20 09:05:48;;;;;;;25.33;13.67;;;17.00;84.90;;;;;;5031358;28;20439;-75
2021/09/20 09:08:18;;;;;;;25.57;12.53;;;16.90;85.60;;;;;;5029768;28;20803;-77
2021/09/20 09:10:47;;;;;;;27.40;12.70;;;16.90;85.90;;;;;;5033032;28;20446;-76
2021/09/20 09:13:14;;;;;;;27.57;14.63;;;17.00;85.60;;;;;;5034875;28;20435;-77
2021/09/20 09:15:45;;;;;;;33.00;14.03;;;17.00;85.50;;;;;;5034024;28;20521;-76
2021/09/20 09:18:11;;;;;;;24.80;13.37;;;17.10;85.20;;;;;;5035740;28;20438;-76
2021/09/20 09:20:40;;;;;;;27.23;13.10;;;17.00;84.90;;;;;;5033624;28;20431;-75
2021/09/20 09:23:12;;;;;;;27.60;13.10;;;17.10;85.00;;;;;;5034422;28;20328;-76
2021/09/20 09:25:47;;;;;;;31.00;14.33;;;17.20;84.60;;;;;;5033647;28;20810;-76
2021/09/20 09:28:20;;;;;;;25.73;13.67;;;17.10;84.60;;;;;;5034119;28;20423;-75
2021/09/20 09:30:48;;;;;;;27.00;13.30;;;17.00;85.30;;;;;;5029581;28;20458;-75
2021/09/20 09:33:35;;;;;;;23.27;13.10;;;16.90;85.50;;;;;;5032992;28;20427;-76
2021/09/20 09:36:02;;;;;;;27.13;13.30;;;17.00;85.60;;;;;;5029354;28;20468;-77
2021/09/20 09:38:27;;;;;;;26.10;13.73;;;17.00;85.70;;;;;;5032442;28;20420;-77
2021/09/20 09:40:57;;;;;;;24.10;13.23;;;17.00;85.60;;;;;;5032839;28;20519;-76
2021/09/20 09:43:27;;;;;;;25.40;13.33;;;17.00;85.60;;;;;;5030711;28;21760;-76
2021/09/20 09:45:55;;;;;;;24.07;12.80;;;17.10;85.00;;;;;;5032029;28;20427;-76
2021/09/20 09:48:23;;;;;;;24.03;12.30;;;17.20;84.70;;;;;;5030727;28;20529;-77
2021/09/20 09:50:50;;;;;;;22.43;11.80;;;17.30;84.10;;;;;;5032703;28;20461;-77
2021/09/20 09:53:36;;;;;;;26.00;13.77;;;17.30;84.10;;;;;;5040687;28;20515;-76
2021/09/20 09:56:18;;;;;;;27.40;12.43;;;17.20;84.30;;;;;;5039183;28;20451;-77
2021/09/20 09:58:55;;;;;;;20.63;11.10;;;17.20;84.40;;;;;;5035883;28;20422;-76
2021/09/20 10:01:27;;;;;;;28.10;13.03;;;17.20;84.60;;;;;;5037070;28;20793;-77
2021/09/20 10:04:13;;;;;;;24.17;12.93;;;17.20;84.60;;;;;;5036477;28;20426;-78
2021/09/20 10:06:41;;;;;;;23.43;12.27;;;17.10;84.60;;;;;;5034852;28;20449;-75
2021/09/20 10:09:09;;;;;;;29.73;13.17;;;17.10;84.70;;;;;;5036829;28;20412;-76
2021/09/20 10:11:35;;;;;;;23.77;12.27;;;17.00;85.30;;;;;;5037674;28;20857;-77
2021/09/20 10:14:02;;;;;;;28.13;13.70;;;17.00;85.20;;;;;;5037099;28;20465;-76
2021/09/20 10:16:30;;;;;;;26.00;12.40;;;17.00;85.20;;;;;;5037586;28;20443;-76
2021/09/20 10:18:56;;;;;;;23.60;13.27;;;17.10;84.90;;;;;;5037587;28;20454;-77
2021/09/20 10:21:22;;;;;;;31.20;13.93;;;17.10;84.60;;;;;;5037337;28;20431;-76
2021/09/20 10:23:48;;;;;;;23.47;13.20;;;16.90;85.20;;;;;;5036576;28;20787;-76
2021/09/20 10:26:15;;;;;;;30.60;13.30;;;16.90;85.70;;;;;;5036936;28;20774;-76
2021/09/20 10:28:41;;;;;;;27.17;14.23;;;16.90;85.50;;;;;;5038740;28;20442;-79
2021/09/20 10:31:10;;;;;;;30.30;13.80;;;16.90;85.50;;;;;;5037345;28;20420;-77
2021/09/20 10:33:36;;;;;;;27.27;15.07;;;16.90;86.00;;;;;;5036732;28;20585;-79
2021/09/20 10:36:01;;;;;;;31.23;15.27;;;16.90;85.70;;;;;;5037562;28;20600;-78
2021/09/20 10:38:29;;;;;;;27.27;13.67;;;16.90;85.60;;;;;;5037651;28;20184;-77
2021/09/20 10:41:13;;;;;;;28.40;14.27;;;16.90;86.00;;;;;;5035898;28;20238;-77
2021/09/20 10:43:43;;;;;;;31.27;14.20;;;17.00;85.50;;;;;;5035278;28;20422;-77
2021/09/20 10:46:29;;;;;;;26.37;13.10;;;17.20;85.00;;;;;;5034295;28;20534;-78
2021/09/20 10:48:59;;;;;;;31.67;14.03;;;17.30;84.30;;;;;;5032524;28;20427;-77
2021/09/20 10:51:40;;;;;;;27.83;13.53;;;17.30;84.00;;;;;;5035298;28;20412;-79
2021/09/20 10:54:18;;;;;;;30.50;15.30;;;17.30;84.10;;;;;;5035458;28;20485;-78
2021/09/20 10:56:51;;;;;;;26.30;13.73;;;17.50;83.10;;;;;;5036666;28;20439;-77
2021/09/20 10:59:19;;;;;;;26.23;13.90;;;17.30;83.60;;;;;;5041914;28;20428;-77
2021/09/20 11:01:59;;;;;;;25.17;13.17;;;17.50;83.60;;;;;;5035557;28;20479;-76
2021/09/20 11:04:43;;;;;;;28.50;13.80;;;17.70;81.90;;;;;;5040425;28;20423;-77
2021/09/20 11:07:18;;;;;;;22.07;12.33;;;17.80;81.90;;;;;;5038472;28;20436;-77
2021/09/20 11:09:46;;;;;;;23.70;13.00;;;17.80;82.10;;;;;;5035746;28;20412;-77
2021/09/20 11:12:19;;;;;;;30.33;14.23;;;18.00;81.70;;;;;;5036447;28;20484;-76
2021/09/20 11:14:58;;;;;;;25.20;13.37;;;18.00;81.70;;;;;;5035675;28;20421;-76
2021/09/20 11:17:31;;;;;;;30.97;13.93;;;18.10;80.80;;;;;;5035624;28;20441;-77
2021/09/20 11:20:00;;;;;;;28.60;13.80;;;18.00;81.20;;;;;;5036310;28;20424;-77
2021/09/20 11:22:28;;;;;;;26.43;13.57;;;17.80;81.40;;;;;;5035534;28;20460;-77
2021/09/20 11:25:03;;;;;;;22.37;12.93;;;17.60;82.50;;;;;;5067713;28;20420;-75
2021/09/20 11:27:49;;;;;;;29.30;14.70;;;17.50;82.70;;;;;;5035476;28;20527;-76
2021/09/20 11:30:23;;;;;;;22.90;12.33;;;17.70;82.70;;;;;;5035752;28;20482;-77
2021/09/20 11:32:55;;;;;;;27.20;12.97;;;17.90;81.90;;;;;;5035999;28;20420;-76
2021/09/20 11:35:25;;;;;;;22.33;12.30;;;18.10;80.80;;;;;;5035438;28;20420;-76
2021/09/20 11:37:52;;;;;;;24.80;13.60;;;17.90;81.20;;;;;;5035544;28;20460;-76
2021/09/20 11:40:23;;;;;;;22.57;12.83;;;17.90;81.90;;;;;;5035241;28;20422;-77
2021/09/20 11:42:52;;;;;;;22.07;11.83;;;17.90;81.90;;;;;;5033805;28;20474;-76
2021/09/20 11:45:18;;;;;;;23.93;13.37;;;18.00;81.40;;;;;;5035652;28;20509;-76
2021/09/20 11:48:04;;;;;;;21.37;11.43;;;18.10;80.50;;;;;;5033962;28;20506;-76
2021/09/20 11:50:32;;;;;;;22.80;12.77;;;18.30;79.70;;;;;;5035599;28;20744;-76
2021/09/20 11:53:04;;;;;;;28.03;12.73;;;18.40;78.70;;;;;;5032742;28;20931;-75
2021/09/20 11:55:44;;;;;;;23.33;12.73;;;18.40;78.70;;;;;;5042020;28;20528;-77
2021/09/20 11:58:12;;;;;;;21.20;11.20;;;18.70;77.70;;;;;;5035077;28;20505;-79
2021/09/20 12:00:47;;;;;;;26.00;12.27;;;18.80;76.40;;;;;;5027289;28;20797;-77
2021/09/20 12:03:14;;;;;;;22.70;13.07;;;18.80;76.40;;;;;;5033619;28;20467;-76
2021/09/20 12:05:45;;;;;;;20.70;12.20;;;18.80;77.10;;;;;;5035803;28;20490;-77
2021/09/20 12:08:15;;;;;;;25.30;11.60;;;18.60;78.30;;;;;;5034829;28;20420;-76
2021/09/20 12:10:43;;;;;;;20.03;11.57;;;18.60;78.60;;;;;;5036628;28;20504;-76
2021/09/20 12:13:17;;;;;;;20.40;11.47;;;18.70;76.20;;;;;;5032951;28;20479;-78
2021/09/20 12:15:45;;;;;;;19.80;11.00;;;18.60;75.80;;;;;;5027922;28;21019;-77
2021/09/20 12:18:16;;;;;;;17.77;10.80;;;18.60;76.80;;;;;;5033606;28;20418;-76
2021/09/20 12:20:49;;;;;;;21.30;10.57;;;18.60;77.60;;;;;;5037824;28;20437;-76
2021/09/20 12:23:17;;;;;;;22.97;10.57;;;18.50;77.10;;;;;;5035897;28;20470;-77
2021/09/20 12:25:51;;;;;;;17.40;9.40;;;18.20;78.40;;;;;;5036026;28;20440;-77
2021/09/20 12:28:17;;;;;;;18.97;10.63;;;18.10;79.20;;;;;;5037872;28;20436;-78
2021/09/20 12:30:53;;;;;;;21.63;10.27;;;18.30;78.40;;;;;;5033812;28;20416;-78
2021/09/20 12:33:19;;;;;;;19.80;10.00;;;18.40;78.00;;;;;;5034665;28;20186;-77
2021/09/20 12:35:45;;;;;;;18.40;10.30;;;18.10;78.10;;;;;;5032773;28;20786;-79